Chamblee, Georgia
Current Conditions -  °F | °C
As of 6:53 PM on Monday 22 Dec 2014 (Local Time) from KPDK Reporting Station
Light Rain Light Rain  
Wind Chill: 39°   Ceiling: 700
Heat Index: 43°   Visibility: 6mi
Dew Point: 41°   Wind: 6mph
Humidity: 93%   Direction: 80°E
Pressure: 29.93"   Gusts: NA
Location:  33.89°N, 84.3°W
Report Text: KPDK 222353Z 08005KT 6SM -RA BR OVC007 06/05 A2993 RMK AO2 LTG DSNT SE RAE06B32 CIG 004V009 SLP145 P0002 60012 T00610050 10067 20061 53003
Loading
Personal Weather Stations






























Interactive Weather Map New forecast layout! Learn more

10-Day Weather Forecast

Advertisements
Track Severe Weather on mobile